createdAt,value
2018-12-19T00:00:08.318Z,98.99
2018-12-19T00:02:35.836Z,99.52
2018-12-19T00:05:03.958Z,99.19
2018-12-19T00:07:31.457Z,99.66
2018-12-19T00:09:58.967Z,99.34
2018-12-19T00:12:26.504Z,98.97
2018-12-19T00:14:54.004Z,99.01
2018-12-19T00:17:21.498Z,98.73
2018-12-19T00:19:49.090Z,98.97
2018-12-19T00:22:16.578Z,99.09
2018-12-19T00:24:44.056Z,98.49
2018-12-19T00:27:11.588Z,99.02
2018-12-19T00:29:39.117Z,98.62
2018-12-19T00:32:06.600Z,98.60
2018-12-19T00:34:34.157Z,98.34
2018-12-19T00:39:42.183Z,98.71
2018-12-19T00:42:09.747Z,98.28
2018-12-19T00:44:37.230Z,97.99
2018-12-19T00:47:04.759Z,98.00
2018-12-19T00:49:32.266Z,98.62
2018-12-19T00:51:59.756Z,98.41
2018-12-19T00:54:27.221Z,98.50
2018-12-19T00:56:54.838Z,98.59
2018-12-19T00:59:22.291Z,98.31
2018-12-19T01:01:49.970Z,98.37
2018-12-19T01:04:17.534Z,98.79
2018-12-19T01:06:45.096Z,98.76
2018-12-19T01:09:15.852Z,99.14
2018-12-19T01:11:42.145Z,98.91
2018-12-19T01:14:09.632Z,99.28
2018-12-19T01:16:37.095Z,99.28
2018-12-19T01:19:04.566Z,98.92
2018-12-19T01:21:32.118Z,99.05
2018-12-19T01:23:59.703Z,98.81
2018-12-19T01:26:27.196Z,99.02
2018-12-19T01:28:54.686Z,98.83
2018-12-19T01:31:22.179Z,98.74
2018-12-19T01:33:49.713Z,98.75
2018-12-19T01:36:17.206Z,98.61
2018-12-19T01:38:44.720Z,98.38
2018-12-19T01:41:12.241Z,97.91
2018-12-19T01:43:39.791Z,97.76
2018-12-19T01:46:07.307Z,97.73
2018-12-19T01:48:34.816Z,97.30
2018-12-19T01:51:02.292Z,97.84
2018-12-19T01:53:29.756Z,97.74
2018-12-19T01:55:57.446Z,97.88
2018-12-19T01:58:24.968Z,98.10
2018-12-19T02:00:52.459Z,98.13
2018-12-19T02:03:19.897Z,98.26
2018-12-19T02:05:47.474Z,98.97
2018-12-19T02:08:14.984Z,99.05
2018-12-19T02:10:42.492Z,99.01
2018-12-19T02:13:09.947Z,98.56
2018-12-19T02:15:37.388Z,98.45
2018-12-19T02:18:04.853Z,98.62
2018-12-19T02:20:32.320Z,98.97
2018-12-19T02:22:59.802Z,98.94
2018-12-19T02:25:27.272Z,99.15
2018-12-19T02:27:54.832Z,98.85
2018-12-19T02:30:22.395Z,98.97
2018-12-19T02:32:49.970Z,99.35
2018-12-19T02:35:17.466Z,99.85
2018-12-19T02:37:45.214Z,99.79
2018-12-19T02:40:12.724Z,99.19
2018-12-19T02:42:40.174Z,99.61
2018-12-19T02:45:07.672Z,99.47
2018-12-19T02:47:35.137Z,99.46
2018-12-19T02:50:02.704Z,99.36
2018-12-19T02:52:30.175Z,99.52
2018-12-19T02:54:57.726Z,99.53
2018-12-19T02:57:25.347Z,99.67
2018-12-19T02:59:52.900Z,99.51
2018-12-19T03:02:20.535Z,99.78
2018-12-19T03:04:47.990Z,99.59
2018-12-19T03:07:15.500Z,99.30
2018-12-19T03:09:43.186Z,99.07
2018-12-19T03:12:10.996Z,99.62
2018-12-19T03:14:38.446Z,99.37
2018-12-19T03:17:05.942Z,99.45
2018-12-19T03:19:33.499Z,99.43
2018-12-19T03:22:00.962Z,99.25
2018-12-19T03:24:28.532Z,99.06
2018-12-19T03:26:55.990Z,99.39
2018-12-19T03:29:23.552Z,99.43
2018-12-19T03:31:51.129Z,99.33
2018-12-19T03:34:18.679Z,98.95
2018-12-19T03:36:46.254Z,98.91
2018-12-19T03:39:13.820Z,99.00
2018-12-19T03:41:41.341Z,99.02
2018-12-19T03:44:08.844Z,98.83
2018-12-19T03:46:36.412Z,99.19
2018-12-19T03:49:03.901Z,99.50
2018-12-19T03:51:31.389Z,99.51
2018-12-19T03:53:58.878Z,99.38
2018-12-19T03:56:26.368Z,99.26
2018-12-19T03:58:53.918Z,99.17
2018-12-19T04:01:21.355Z,98.93
2018-12-19T04:03:48.815Z,98.86
2018-12-19T04:06:16.281Z,99.14
2018-12-19T04:08:43.747Z,99.19
2018-12-19T04:11:11.224Z,99.69
2018-12-19T04:13:38.811Z,99.79
2018-12-19T04:16:06.357Z,99.68
2018-12-19T04:18:33.938Z,99.92
2018-12-19T04:21:01.417Z,99.70
2018-12-19T04:23:28.941Z,100.00
2018-12-19T04:25:56.395Z,100.00
2018-12-19T04:28:23.870Z,99.54
2018-12-19T04:30:51.367Z,99.17
2018-12-19T04:33:18.842Z,99.55
2018-12-19T04:35:46.534Z,99.40
2018-12-19T04:38:14.314Z,98.97
2018-12-19T04:40:41.782Z,98.83
2018-12-19T04:43:09.317Z,98.82
2018-12-19T04:45:36.852Z,98.97
2018-12-19T04:48:04.364Z,98.87
2018-12-19T04:50:31.821Z,99.03
2018-12-19T04:53:00.105Z,98.99
2018-12-19T04:55:27.582Z,98.92
2018-12-19T04:57:55.024Z,98.94
2018-12-19T05:00:22.498Z,98.94
2018-12-19T05:02:50.015Z,98.72
2018-12-19T05:05:17.597Z,98.52
2018-12-19T05:07:45.312Z,98.56
2018-12-19T05:10:13.028Z,98.37
2018-12-19T05:12:40.535Z,98.13
2018-12-19T05:15:08.039Z,98.29
2018-12-19T05:17:35.518Z,97.89
2018-12-19T05:20:03.248Z,97.73
2018-12-19T05:22:30.843Z,98.10
2018-12-19T05:24:58.337Z,98.16
2018-12-19T05:27:25.844Z,98.29
2018-12-19T05:29:53.358Z,98.42
2018-12-19T05:32:20.835Z,98.06
2018-12-19T05:34:48.361Z,98.07
2018-12-19T05:37:15.843Z,97.95
2018-12-19T05:39:43.411Z,98.20
2018-12-19T05:42:10.906Z,97.95
2018-12-19T05:44:38.385Z,97.02
2018-12-19T05:47:06.240Z,97.68
2018-12-19T05:49:34.516Z,97.54
2018-12-19T05:52:01.983Z,97.22
2018-12-19T05:54:29.476Z,97.39
2018-12-19T05:56:56.951Z,97.04
2018-12-19T05:59:24.505Z,97.04
2018-12-19T06:01:52.128Z,96.75
2018-12-19T06:04:19.644Z,96.97
2018-12-19T06:06:47.145Z,96.81
2018-12-19T06:09:14.609Z,96.68
2018-12-19T06:11:42.083Z,96.35
2018-12-19T06:14:09.608Z,96.28
2018-12-19T06:16:37.129Z,96.68
2018-12-19T06:19:04.596Z,96.58
2018-12-19T06:21:32.283Z,96.03
2018-12-19T06:23:59.899Z,95.97
2018-12-19T06:26:27.507Z,96.34
2018-12-19T06:28:55.022Z,95.98
2018-12-19T06:31:22.515Z,95.79
2018-12-19T06:33:50.213Z,95.97
2018-12-19T06:36:17.791Z,96.23
2018-12-19T06:38:45.287Z,96.14
2018-12-19T06:41:12.883Z,95.79
2018-12-19T06:43:40.345Z,95.75
2018-12-19T06:46:07.828Z,95.65
2018-12-19T06:48:35.897Z,95.47
2018-12-19T06:51:03.569Z,95.37
2018-12-19T06:53:31.141Z,95.21
2018-12-19T06:55:58.635Z,95.60
2018-12-19T06:58:26.133Z,95.60
2018-12-19T07:00:54.123Z,95.41
2018-12-19T07:03:21.735Z,95.47
2018-12-19T07:05:49.276Z,95.27
2018-12-19T07:08:16.749Z,95.14
2018-12-19T07:10:44.240Z,95.23
2018-12-19T07:13:11.803Z,94.92
2018-12-19T07:15:39.278Z,94.78
2018-12-19T07:18:06.792Z,94.94
2018-12-19T07:20:34.291Z,95.26
2018-12-19T07:23:01.737Z,95.00
2018-12-19T07:25:29.206Z,95.17
2018-12-19T07:27:56.886Z,94.96
2018-12-19T07:30:24.396Z,94.99
2018-12-19T07:32:51.881Z,94.76
2018-12-19T07:35:20.095Z,94.66
2018-12-19T07:37:47.670Z,94.16
2018-12-19T07:40:15.184Z,94.46
2018-12-19T07:42:42.695Z,93.69
2018-12-19T07:45:10.248Z,94.08
2018-12-19T07:47:37.712Z,93.99
2018-12-19T07:50:05.805Z,93.79
2018-12-19T07:52:33.302Z,93.62
2018-12-19T07:55:00.805Z,93.74
2018-12-19T07:57:28.294Z,93.40
2018-12-19T07:59:55.799Z,93.43
2018-12-19T08:02:23.283Z,93.08
2018-12-19T08:04:50.896Z,93.05
2018-12-19T08:07:18.431Z,93.14
2018-12-19T08:09:45.930Z,93.03
2018-12-19T08:12:13.428Z,93.48
2018-12-19T08:14:40.926Z,93.19
2018-12-19T08:17:08.458Z,93.06
2018-12-19T08:19:36.052Z,93.21
2018-12-19T08:22:03.585Z,92.53
2018-12-19T08:24:31.093Z,92.33
2018-12-19T08:26:58.566Z,92.18
2018-12-19T08:29:26.222Z,92.25
2018-12-19T08:31:53.752Z,92.21
2018-12-19T08:34:21.284Z,92.06
2018-12-19T08:36:48.814Z,91.82
2018-12-19T08:39:16.614Z,91.71
2018-12-19T08:41:44.113Z,91.99
2018-12-19T08:44:11.608Z,91.63
2018-12-19T08:46:39.141Z,91.20
2018-12-19T08:49:06.591Z,90.95
2018-12-19T08:51:34.437Z,91.05
2018-12-19T08:54:02.033Z,90.69
2018-12-19T08:56:29.535Z,90.87
2018-12-19T08:58:56.992Z,90.59
2018-12-19T09:01:24.579Z,90.26
2018-12-19T09:03:52.081Z,89.98
2018-12-19T09:06:19.575Z,89.95
2018-12-19T09:08:47.047Z,89.99
2018-12-19T09:11:14.528Z,89.59
2018-12-19T09:13:42.009Z,89.74
2018-12-19T09:16:09.612Z,89.69
2018-12-19T09:18:37.083Z,89.24
2018-12-19T09:21:04.591Z,88.66
2018-12-19T09:23:32.120Z,88.74
2018-12-19T09:25:59.677Z,88.75
2018-12-19T09:28:27.165Z,87.94
2018-12-19T09:30:55.309Z,88.48
2018-12-19T09:33:27.358Z,88.06
2018-12-19T09:35:52.270Z,87.89
2018-12-19T09:38:19.783Z,88.39
2018-12-19T09:40:47.299Z,88.12
2018-12-19T09:43:14.767Z,88.99
2018-12-19T09:45:42.240Z,88.54
2018-12-19T09:48:09.836Z,88.08
2018-12-19T09:50:37.302Z,88.39
2018-12-19T09:53:04.770Z,87.78
2018-12-19T09:55:32.327Z,88.04
2018-12-19T09:57:59.842Z,87.16
2018-12-19T10:00:27.566Z,87.36
2018-12-19T10:02:55.203Z,87.18
2018-12-19T10:05:22.909Z,86.76
2018-12-19T10:07:50.456Z,87.18
2018-12-19T10:10:17.931Z,86.49
2018-12-19T10:12:45.743Z,86.83
2018-12-19T10:15:14.313Z,87.04
2018-12-19T10:17:41.837Z,86.18
2018-12-19T10:20:09.374Z,85.92
2018-12-19T10:22:36.924Z,85.44
2018-12-19T10:25:11.016Z,85.55
2018-12-19T10:27:38.512Z,85.07
2018-12-19T10:30:09.179Z,85.50
2018-12-19T10:32:38.591Z,84.65
2018-12-19T10:35:07.258Z,84.99
2018-12-19T10:37:34.821Z,84.47
2018-12-19T10:40:02.385Z,84.72
2018-12-19T10:42:29.840Z,84.11
2018-12-19T10:44:57.364Z,84.11
2018-12-19T10:47:24.976Z,83.69
2018-12-19T10:49:52.568Z,84.41
2018-12-19T10:52:20.097Z,84.24
2018-12-19T10:54:47.621Z,84.89
2018-12-19T10:57:15.135Z,84.08
2018-12-19T10:59:42.726Z,84.24
2018-12-19T11:02:10.189Z,84.08
2018-12-19T11:04:37.681Z,84.06
2018-12-19T11:07:05.143Z,84.22
2018-12-19T11:09:32.640Z,84.71
2018-12-19T11:12:00.197Z,84.31
2018-12-19T11:14:27.706Z,84.23
2018-12-19T11:16:55.371Z,83.43
2018-12-19T11:19:22.860Z,82.87
2018-12-19T11:21:50.363Z,83.27
2018-12-19T11:24:17.826Z,83.53
2018-12-19T11:26:45.466Z,82.82
2018-12-19T11:29:12.924Z,82.57
2018-12-19T11:31:40.396Z,82.18
2018-12-19T11:34:07.874Z,81.79
2018-12-19T11:36:35.435Z,81.67
2018-12-19T11:39:03.667Z,81.95
2018-12-19T11:41:31.182Z,82.40
2018-12-19T11:43:58.664Z,83.15
2018-12-19T11:46:26.553Z,82.48
2018-12-19T11:48:54.259Z,82.50
2018-12-19T11:51:21.796Z,82.31
2018-12-19T11:53:49.358Z,83.10
2018-12-19T11:56:16.894Z,82.28
2018-12-19T11:58:44.376Z,82.92
2018-12-19T12:01:11.864Z,83.45
2018-12-19T12:03:39.382Z,82.89
2018-12-19T12:06:06.840Z,83.37
2018-12-19T12:08:34.328Z,83.29
2018-12-19T12:11:01.902Z,82.47
2018-12-19T12:13:29.480Z,83.56
2018-12-19T12:15:56.994Z,82.30
2018-12-19T12:18:24.470Z,82.47
2018-12-19T12:20:52.027Z,82.86
2018-12-19T12:23:19.592Z,82.67
2018-12-19T12:25:47.067Z,82.39
2018-12-19T12:28:14.558Z,82.83
2018-12-19T12:30:42.029Z,81.89
2018-12-19T12:33:09.549Z,81.78
2018-12-19T12:35:37.114Z,82.07
2018-12-19T12:38:04.604Z,81.75
2018-12-19T12:40:32.144Z,81.66
2018-12-19T12:42:59.637Z,82.30
2018-12-19T12:45:27.120Z,82.12
2018-12-19T12:47:54.623Z,81.88
2018-12-19T12:50:22.228Z,82.72
2018-12-19T12:52:49.690Z,82.25
2018-12-19T12:55:17.466Z,82.07
2018-12-19T12:57:44.931Z,81.70
2018-12-19T13:00:12.476Z,82.29
2018-12-19T13:02:39.948Z,81.83
2018-12-19T13:05:07.525Z,82.39
2018-12-19T13:07:35.126Z,81.78
2018-12-19T13:10:02.856Z,82.75
2018-12-19T13:12:30.324Z,82.80
2018-12-19T13:14:57.797Z,82.57
2018-12-19T13:17:25.288Z,82.23
2018-12-19T13:19:52.741Z,81.26
2018-12-19T13:22:20.246Z,81.71
2018-12-19T13:24:47.779Z,81.73
2018-12-19T13:27:15.308Z,82.57
2018-12-19T13:29:42.834Z,81.70
2018-12-19T13:32:10.647Z,82.67
2018-12-19T13:34:38.228Z,82.72
2018-12-19T13:37:05.708Z,81.64
2018-12-19T13:39:33.188Z,81.42
2018-12-19T13:42:05.521Z,81.05
2018-12-19T13:44:30.300Z,80.42
2018-12-19T13:46:57.783Z,81.25
2018-12-19T13:49:25.299Z,81.36
2018-12-19T13:51:53.010Z,81.60
2018-12-19T13:54:20.488Z,81.78
2018-12-19T13:56:48.022Z,81.71
2018-12-19T13:59:15.545Z,81.97
2018-12-19T14:01:43.073Z,81.70
2018-12-19T14:04:10.611Z,81.84
2018-12-19T14:06:38.136Z,82.12
2018-12-19T14:09:06.352Z,82.53
2018-12-19T14:11:33.864Z,81.64
2018-12-19T14:14:01.391Z,82.60
2018-12-19T14:16:28.908Z,81.10
2018-12-19T14:18:56.383Z,82.01
2018-12-19T14:21:23.874Z,81.40
2018-12-19T14:23:51.315Z,82.08
2018-12-19T14:26:18.798Z,82.52
2018-12-19T14:28:46.250Z,82.34
2018-12-19T14:31:13.745Z,82.57
2018-12-19T14:33:41.217Z,84.48
2018-12-19T14:36:08.719Z,85.12
2018-12-19T14:38:36.179Z,85.37
2018-12-19T14:41:03.785Z,85.11
2018-12-19T14:43:31.256Z,85.86
2018-12-19T14:45:59.637Z,84.72
2018-12-19T14:48:27.333Z,84.62
2018-12-19T14:50:55.043Z,85.22
2018-12-19T14:53:22.535Z,86.44
2018-12-19T14:55:50.046Z,85.84
2018-12-19T14:58:17.512Z,85.87
2018-12-19T15:00:45.081Z,85.52
2018-12-19T15:03:12.574Z,86.87
2018-12-19T15:05:40.129Z,86.76
2018-12-19T15:08:07.707Z,87.62
2018-12-19T15:10:35.279Z,87.47
2018-12-19T15:13:02.906Z,86.68
2018-12-19T15:15:30.476Z,87.49
2018-12-19T15:17:58.055Z,87.49
2018-12-19T15:20:25.628Z,87.86
2018-12-19T15:22:53.121Z,87.05
2018-12-19T15:25:20.661Z,85.77
2018-12-19T15:27:48.142Z,85.50
2018-12-19T15:30:15.646Z,86.37
2018-12-19T15:32:43.402Z,86.28
2018-12-19T15:35:10.938Z,86.63
2018-12-19T15:37:38.562Z,87.18
2018-12-19T15:40:06.151Z,87.21
2018-12-19T15:42:33.651Z,86.95
2018-12-19T15:45:01.252Z,87.56
2018-12-19T15:47:28.840Z,86.52
2018-12-19T15:49:56.333Z,87.64
2018-12-19T15:52:24.065Z,86.66
2018-12-19T15:54:51.664Z,86.57
2018-12-19T15:57:19.120Z,86.30
2018-12-19T15:59:46.604Z,86.29
2018-12-19T16:02:14.087Z,87.51
2018-12-19T16:04:41.561Z,86.88
2018-12-19T16:07:09.039Z,86.25
2018-12-19T16:09:36.608Z,86.62
2018-12-19T16:12:04.107Z,85.85
2018-12-19T16:14:31.588Z,86.83
2018-12-19T16:16:59.126Z,86.38
2018-12-19T16:19:26.607Z,86.93
2018-12-19T16:21:54.175Z,87.67
2018-12-19T16:24:21.664Z,86.79
2018-12-19T16:26:49.132Z,86.85
2018-12-19T16:29:16.642Z,86.10
2018-12-19T16:31:44.130Z,84.95
2018-12-19T16:34:11.603Z,85.10
2018-12-19T16:36:39.048Z,85.41
2018-12-19T16:39:08.273Z,85.90
2018-12-19T16:41:35.887Z,85.79
2018-12-19T16:44:03.429Z,85.74
2018-12-19T16:46:30.946Z,85.91
2018-12-19T16:48:58.426Z,85.24
2018-12-19T16:51:25.883Z,85.84
2018-12-19T16:53:53.347Z,85.82
2018-12-19T16:56:20.846Z,85.39
2018-12-19T16:58:48.309Z,85.30
2018-12-19T17:01:15.827Z,84.71
2018-12-19T17:03:43.344Z,85.48
2018-12-19T17:06:10.805Z,85.08
2018-12-19T17:08:38.309Z,85.61
2018-12-19T17:11:05.833Z,85.38
2018-12-19T17:13:33.403Z,85.96
2018-12-19T17:16:00.909Z,85.54
2018-12-19T17:18:28.412Z,85.88
2018-12-19T17:20:55.952Z,85.64
2018-12-19T17:23:23.480Z,86.46
2018-12-19T17:25:50.963Z,85.81
2018-12-19T17:28:18.448Z,85.90
2018-12-19T17:30:46.043Z,86.62
2018-12-19T17:33:13.502Z,86.28
2018-12-19T17:35:40.983Z,85.88
2018-12-19T17:38:08.572Z,86.29
2018-12-19T17:40:36.058Z,86.77
2018-12-19T17:43:03.557Z,86.61
2018-12-19T17:45:31.058Z,86.82
2018-12-19T17:47:58.692Z,86.89
2018-12-19T17:50:26.381Z,86.26
2018-12-19T17:52:53.921Z,86.30
2018-12-19T17:55:21.437Z,86.82
2018-12-19T17:57:48.910Z,86.91
2018-12-19T18:00:16.576Z,87.17
2018-12-19T18:02:44.043Z,86.21
2018-12-19T18:05:11.611Z,86.16
2018-12-19T18:07:39.137Z,86.31
2018-12-19T18:10:06.707Z,86.73
2018-12-19T18:12:34.370Z,86.75
2018-12-19T18:15:01.833Z,86.79
2018-12-19T18:17:29.368Z,87.60
2018-12-19T18:19:56.870Z,86.87
2018-12-19T18:22:24.352Z,87.81
2018-12-19T18:24:51.845Z,86.57
2018-12-19T18:27:19.407Z,87.94
2018-12-19T18:29:46.920Z,87.31
2018-12-19T18:32:14.510Z,88.35
2018-12-19T18:34:42.029Z,88.27
2018-12-19T18:37:09.585Z,87.34
2018-12-19T18:39:37.056Z,87.67
2018-12-19T18:42:04.542Z,87.09
2018-12-19T18:44:32.071Z,87.59
2018-12-19T18:46:59.594Z,87.28
2018-12-19T18:49:27.107Z,86.99
2018-12-19T18:51:54.677Z,87.77
2018-12-19T18:54:22.261Z,88.01
2018-12-19T18:56:49.726Z,87.98
2018-12-19T18:59:17.259Z,87.38
2018-12-19T19:01:44.801Z,87.98
2018-12-19T19:04:12.377Z,87.29
2018-12-19T19:06:39.943Z,87.48
2018-12-19T19:09:07.698Z,87.66
2018-12-19T19:11:35.364Z,87.39
2018-12-19T19:14:02.838Z,87.86
2018-12-19T19:16:30.441Z,87.83
2018-12-19T19:18:58.023Z,88.30
2018-12-19T19:21:25.504Z,88.27
2018-12-19T19:23:53.058Z,87.57
2018-12-19T19:26:21.004Z,86.50
2018-12-19T19:28:48.513Z,87.55
2018-12-19T19:31:16.055Z,88.16
2018-12-19T19:33:43.547Z,87.64
2018-12-19T19:36:11.196Z,87.47
2018-12-19T19:38:38.693Z,87.62
2018-12-19T19:41:06.186Z,87.39
2018-12-19T19:43:33.687Z,87.33
2018-12-19T19:46:01.172Z,87.34
2018-12-19T19:48:28.725Z,86.77
2018-12-19T19:50:56.227Z,86.51
2018-12-19T19:53:23.759Z,87.44
2018-12-19T19:55:51.281Z,86.34
2018-12-19T19:58:18.844Z,87.41
2018-12-19T20:00:46.346Z,86.43
2018-12-19T20:03:13.837Z,86.84
2018-12-19T20:05:41.447Z,87.49
2018-12-19T20:08:09.323Z,86.86
2018-12-19T20:10:37.038Z,87.45
2018-12-19T20:13:04.537Z,87.67
2018-12-19T20:15:32.242Z,87.18
2018-12-19T20:20:34.605Z,87.54
2018-12-19T20:23:02.115Z,87.28
2018-12-19T20:25:29.630Z,87.22
2018-12-19T20:27:57.210Z,87.31
2018-12-19T20:30:24.766Z,87.65
2018-12-19T20:32:52.316Z,87.04
2018-12-19T20:35:19.848Z,87.59
2018-12-19T20:37:47.371Z,86.50
2018-12-19T20:40:14.881Z,86.82
2018-12-19T20:42:45.355Z,87.13
2018-12-19T20:45:13.413Z,86.71
2018-12-19T20:47:41.937Z,86.62
2018-12-19T20:50:09.686Z,86.33
2018-12-19T20:55:15.116Z,86.20
2018-12-19T20:57:43.074Z,86.31
2018-12-19T21:00:10.678Z,86.76
2018-12-19T21:02:38.473Z,86.77
2018-12-19T21:05:05.993Z,87.10
2018-12-19T21:07:33.493Z,85.96
2018-12-19T21:10:01.065Z,86.46
2018-12-19T21:12:28.588Z,86.25
2018-12-19T21:17:36.561Z,86.32
2018-12-19T21:20:05.934Z,86.37
2018-12-19T21:22:33.447Z,87.10
2018-12-19T21:25:00.949Z,86.78
2018-12-19T21:27:28.547Z,86.83
2018-12-19T21:29:56.063Z,86.10
2018-12-19T21:32:23.560Z,85.80
2018-12-19T21:34:51.134Z,86.53
2018-12-19T21:37:18.674Z,86.33
2018-12-19T21:39:46.206Z,86.50
2018-12-19T21:42:14.159Z,86.68
2018-12-19T21:44:41.634Z,86.78
2018-12-19T21:47:09.113Z,86.19
2018-12-19T21:49:37.575Z,86.96
2018-12-19T21:52:05.162Z,85.89
2018-12-19T21:54:32.689Z,86.27
2018-12-19T21:57:00.293Z,85.98
2018-12-19T21:59:27.853Z,86.02
2018-12-19T22:01:55.582Z,86.45
2018-12-19T22:04:23.095Z,86.13
2018-12-19T22:06:50.721Z,86.42
2018-12-19T22:09:18.291Z,86.61
2018-12-19T22:11:45.864Z,85.80
2018-12-19T22:14:13.661Z,86.39
2018-12-19T22:16:46.999Z,86.22
2018-12-19T22:19:14.607Z,86.07
2018-12-19T22:21:42.073Z,85.66
2018-12-19T22:24:09.642Z,86.01
2018-12-19T22:26:37.242Z,86.69
2018-12-19T22:29:04.841Z,86.38
2018-12-19T22:31:32.544Z,86.35
2018-12-19T22:34:00.114Z,86.14
2018-12-19T22:36:27.710Z,86.43
2018-12-19T22:38:55.371Z,85.77
2018-12-19T22:41:22.883Z,86.17
2018-12-19T22:43:50.463Z,86.19
2018-12-19T22:46:18.052Z,85.78
2018-12-19T22:48:45.544Z,86.19
2018-12-19T22:51:13.174Z,86.23
2018-12-19T22:53:40.770Z,85.86
2018-12-19T22:56:08.314Z,86.29
2018-12-19T22:58:35.752Z,86.43
2018-12-19T23:01:09.503Z,86.70
2018-12-19T23:03:42.864Z,86.14
2018-12-19T23:06:10.505Z,86.34
2018-12-19T23:08:38.038Z,87.35
2018-12-19T23:11:05.706Z,87.56
2018-12-19T23:13:33.300Z,87.45
2018-12-19T23:16:00.836Z,86.37
2018-12-19T23:18:29.570Z,86.83
2018-12-19T23:20:57.166Z,86.11
2018-12-19T23:23:24.894Z,85.72
2018-12-19T23:25:52.468Z,86.18
2018-12-19T23:28:19.984Z,85.64
2018-12-19T23:30:47.477Z,85.53
2018-12-19T23:33:15.113Z,85.78
2018-12-19T23:35:42.667Z,86.55
2018-12-19T23:38:10.200Z,85.95
2018-12-19T23:40:37.696Z,85.27
2018-12-19T23:43:05.280Z,85.20
2018-12-19T23:45:32.879Z,85.20
2018-12-19T23:48:00.423Z,85.95
2018-12-19T23:50:27.952Z,85.64
2018-12-19T23:52:55.697Z,85.98
2018-12-19T23:55:23.323Z,85.83
2018-12-19T23:57:50.902Z,86.61
